5 km - Pidżama Run Decathlon 2019

M-ce Numer Nazwisko Imię Płeć M-ce M/K Kat. M-ce kat. M/K Miejscowość Klub Pracownik DECATHLON DYSTANS Wynik Prędkość km/h x Tempo min/km x Punkt 1
1 2 BAGROWSKI TOMASZ M 1 M 30-39 GDAŃSK 5km 0:15:19 19.59 [km/h] 0:03:04 [min/km] 0:07:42
2 299 TRACZYŃSKI DANIEL M 2 M 19-29 ŚWIDNICA BIEGOWA ŚWIDNICA 5km 0:16:09 18.58 [km/h] 0:03:14 [min/km] 0:08:00
3 117 LABUDA WOJCIECH M 3 M 30-39 0 0 5km 0:16:49 17.84 [km/h] 0:03:22 [min/km] 0:08:36
4 124 KOŚCIELSKI MARIUSZ M 4 M 50-59 1 GDYNIA COM-DKM 5km 0:17:00 17.65 [km/h] 0:03:24 [min/km] 0:08:37
5 101 KANKOWSKI PAWEŁ M 5 M 30-39 1 LUZINO GKS KASZUBI LUZINO 5km 0:17:14 17.41 [km/h] 0:03:27 [min/km] 0:08:48
6 71 GRZEGORY MAREK M 6 M DECATHLON 1 WŁADYSŁAWOWO DECATHLON RUMIA DECATHLON 5km 0:17:49 16.84 [km/h] 0:03:34 [min/km] 0:09:15
7 207 RORAF MAGDALENA K 1 K 30-39 CELBOWO TEAM KREFT 5km 0:18:23 16.32 [km/h] 0:03:41 [min/km] 0:09:20
8 188 NACZK WIKTORIA K 2 K 15-18 LĘBORK LKB .IM BRACI PETK 5km 0:19:02 15.76 [km/h] 0:03:48 [min/km] 0:09:24
9 94 JANTOWSKI ZBIGNIEW M 7 M 50-59 2 REDA MOTYWATORNIA TEAM 5km 0:19:06 15.71 [km/h] 0:03:49 [min/km] 0:09:39
10 67 GROCHOWSKI PATRYK M 8 M 19-29 1 GDYNIA BUBU 5km 0:19:10 15.65 [km/h] 0:03:50 [min/km] 0:09:30
11 106 KASPRZYCKI FILIP M 9 M 19-29 2 RUMIA 5km 0:19:14 15.60 [km/h] 0:03:51 [min/km] 0:10:12
12 157 LICHTENSTEIN PAWEŁ M 10 M DECATHLON 2 GDYNIA DECATHLON RUMIA BIEGA DECATHLON 5km 0:19:17 15.56 [km/h] 0:03:51 [min/km] 0:09:06
13 120 BARANOWSKI MIKOŁAJ M 11 M 19-29 3 WEJHEROWO 5km 0:19:35 15.32 [km/h] 0:03:55 [min/km] 0:10:35
14 241 STEINKA KRZYSZTOF M 12 M 19-29 4 WIDLINO 5km 0:19:38 15.28 [km/h] 0:03:56 [min/km] 0:10:10
15 114 KOHNKE DARIA K 3 K DECATHLON REDA DECATHLON RUMIA DECATHLON 5km 0:19:42 15.23 [km/h] 0:03:56 [min/km] 0:10:04
16 85 HINCKA MARZENA K 4 K 30-39 1 GNIEŻDŻEWO BIEGAMY RAZEM WŁADYSŁAWOWO 5km 0:19:56 15.05 [km/h] 0:03:59 [min/km] 0:10:22
17 80 HERZBERG PRZEMYSŁAW M 13 M 30-39 2 TORUŃ NB TEAM 5km 0:20:13 14.84 [km/h] 0:04:03 [min/km] 0:10:08
18 239 STAŃCO MARIOLA K 5 K 30-39 2 RUMIA 5km 0:20:19 14.77 [km/h] 0:04:04 [min/km] 0:10:13
19 84 HINCKA JACEK M 14 M 30-39 3 WŁADYSŁAWOWO BIEGAMY RAZEM WŁADYSŁAWOWO 5km 0:20:41 14.50 [km/h] 0:04:08 [min/km] 0:10:26
20 47 DOMŻALSKA WIOLETTA K 6 K 40-49 1 RUMIA PARKRUN RUMIA 5km 0:20:52 14.38 [km/h] 0:04:10 [min/km] 0:10:28
21 98 KALINOWSKA PAULINA K 7 K 30-39 3 KIEŁPINO AKADEMIA BIEGOWA KIEŁPINO 5km 0:21:06 14.22 [km/h] 0:04:13 [min/km] 0:10:24
22 175 MEŃKO MICHAŁ M 15 M 19-29 5 RUMIA JUMPCITY 5km 0:21:33 13.92 [km/h] 0:04:19 [min/km] 0:10:48
23 271 WEGNER KAMILA K 8 K 30-39 4 REDA RUNEDA 5km 0:21:33 13.92 [km/h] 0:04:19 [min/km] 0:11:20
24 211 POGORZELSKI DAMIAN M 16 M 30-39 4 RUMIA 5km 0:21:34 13.91 [km/h] 0:04:19 [min/km] 0:11:44
25 55 GAŁUSZYNSKA KATARZYNA K 9 K 30-39 5 GDYNIA ACTIVE FLOW TEAM 5km 0:21:35 13.90 [km/h] 0:04:19 [min/km] 0:11:01
26 36 DĄBROWSKA ALEKSANDRA K 10 K 40-49 2 BOLSZEWO RUN BABYS 5km 0:21:37 13.88 [km/h] 0:04:19 [min/km] 0:10:46
27 108 KASZUBOWSKA-TEOFILAK JUSTYNA K 11 K 30-39 6 RUMIA 5km 0:21:43 13.81 [km/h] 0:04:21 [min/km] 0:10:47
28 218 PUZDROWSKI KRZYSZTOF M 17 M 0-14 1 GOWINO 5km 0:21:43 13.81 [km/h] 0:04:21 [min/km] 0:10:57
29 268 UZARSKA EWA K 12 K 30-39 7 GDYNIA 5km 0:21:52 13.72 [km/h] 0:04:22 [min/km] 0:11:25
30 17 BUSŁOWICZ KATARZYNA K 13 K 40-49 3 CHOCZEWO 5km 0:22:03 13.61 [km/h] 0:04:25 [min/km] 0:11:18
31 99 KANKOWSKA DOMINIKA K 14 K 15-18 1 LUZINO GKS KASZUBI LUZINO 5km 0:22:07 13.56 [km/h] 0:04:25 [min/km] 0:11:28
32 128 KOZIOŁ JOANNA K 15 K 40-49 4 RUMIA 5km 0:22:09 13.54 [km/h] 0:04:26 [min/km] 0:11:19
33 103 KAŃTOCH WERONIKA K 16 K DECATHLON 1 REDA DECATHLON RUMIA DECATHLON 5km 0:22:25 13.38 [km/h] 0:04:29 [min/km] 0:11:16
34 174 MEJER PATRYCJA K 17 K 19-29 1 GDYNIA BUBU 5km 0:22:27 13.36 [km/h] 0:04:29 [min/km] 0:10:58
35 255 SZUBARTOWICZ MAREK M 18 M 30-39 5 GDYNIA 5km 0:22:32 13.31 [km/h] 0:04:30 [min/km] 0:11:11
36 100 KANKOWSKA JUSTYNA K 18 K 30-39 8 LUZINO GKS KASZUBI LUZINO 5km 0:22:34 13.29 [km/h] 0:04:31 [min/km] 0:11:28
37 160 LILA PATRYCJA K 19 K 19-29 2 ŁAPALICE 5km 0:22:38 13.25 [km/h] 0:04:32 [min/km] 0:11:23
38 191 NIEDBAŁA IRENEUSZ M 19 M 50-59 3 WEJHEROWO 5km 0:22:42 13.22 [km/h] 0:04:32 [min/km] 0:11:35
39 246 SZCZYGIEŁ BARTŁOMIEJ M 20 M 19-29 6 KOSAKOWO 5km 0:23:04 13.01 [km/h] 0:04:37 [min/km] 0:12:37
40 221 REITER PIOTR M 21 M 40-49 1 BOLSZEWO 5km 0:23:07 12.98 [km/h] 0:04:37 [min/km] 0:11:38
41 260 SZYMEROWSKA JOANNA K 20 K 30-39 9 REKOWO GÓRNE DRUŻYNA SŁONECZNEGO PORANKA 5km 0:23:18 12.88 [km/h] 0:04:40 [min/km] 0:11:27
42 215 POTRYKUS MAGDALENA K 21 K 19-29 3 REDA 5km 0:23:36 12.71 [km/h] 0:04:43 [min/km] 0:11:43
43 57 GAWRYLCZYK MACIEJ M 22 M 60-69 1 WEJHEROWO 5km 0:23:37 12.70 [km/h] 0:04:43 [min/km] 0:11:47
44 50 DUSZYŃSKI MAREK M 23 M 19-29 7 GDAŃSK TEAM DUSZKA 5km 0:23:38 12.69 [km/h] 0:04:44 [min/km] 0:11:32
45 194 NOWAKOWSKI PAWEŁ M 24 M 30-39 6 RUMIA 5km 0:23:47 12.61 [km/h] 0:04:45 [min/km] 0:12:09
46 140 KURPIEWSKI PIOTR M 25 M 19-29 8 SKARBIMIERZYCE BBKTS 5km 0:23:49 12.60 [km/h] 0:04:46 [min/km] 0:12:35
47 292 ŻYGOWSKA ALEKSANDRA K 22 K 30-39 10 GDYNIA 5km 0:23:52 12.57 [km/h] 0:04:46 [min/km] 0:11:52
48 74 HEBERLEIN KAROLINA K 23 K 40-49 5 WEJHEROWO 5km 0:23:52 12.57 [km/h] 0:04:46 [min/km] 0:11:56
49 306 TOMCZAK KAMILA K 24 K 30-39 11 GDYNIA - 5km 0:23:56 12.53 [km/h] 0:04:47 [min/km] 0:12:09
50 284 ZARADNY ŁUKASZ M 26 M 30-39 7 RUMIA 5km 0:23:57 12.53 [km/h] 0:04:47 [min/km] 0:12:18
51 305 SIKORSKI DARIUSZ M 27 M 19-29 9 - - 5km 0:23:58 12.52 [km/h] 0:04:48 [min/km] 0:12:09
52 247 SZLADEWSKI OSKAR M 28 M 19-29 10 GDAŃSK 5km 0:23:59 12.51 [km/h] 0:04:48 [min/km] 0:12:15
53 294 DAWIDOWSKI ŁUKASZ M 29 M 30-39 8 GDYNIA KOŁOMAŃSKI-ROWERY 5km 0:24:02 12.48 [km/h] 0:04:48 [min/km] 0:11:28
54 19 CEYNOWA IZABELA K 25 K 19-29 4 REDA 5km 0:24:03 12.47 [km/h] 0:04:49 [min/km] 0:13:02
55 151 LEŚKIEWICZ FILIP M 30 M 19-29 11 GDAŃSK KLUB BIEGACZY JYSK 5km 0:24:10 12.41 [km/h] 0:04:50 [min/km] 0:00:00
56 274 WERRA ZIEMOWIT M 31 M 0-14 2 RUMIA RUNEDA 5km 0:24:19 12.34 [km/h] 0:04:52 [min/km] 0:12:50
57 270 WDOWIAK MONIKA K 26 K 40-49 6 NIDZICA NIDZICA BIEGA 5km 0:24:19 12.34 [km/h] 0:04:52 [min/km] 0:12:28
58 83 HINC IWONA K 27 K 40-49 7 ŻUKOWO-BORKOWO ATYWNI ŻUKOWO 5km 0:24:23 12.30 [km/h] 0:04:53 [min/km] 0:12:08
59 272 WERRA MACIEJ M 32 M 40-49 2 RUMIA RUNEDA 5km 0:24:35 12.20 [km/h] 0:04:55 [min/km] 0:12:48
60 245 SZATKOWSKI TOMASZ M 33 M 19-29 12 OLSZTYN TEAM DUSZKA 5km 0:24:35 12.20 [km/h] 0:04:55 [min/km] 0:12:07
61 131 KRAUZA GRAŻYNA K 28 K 50-59 1 BOLSZEWO RUN BABYS 5km 0:24:38 12.18 [km/h] 0:04:56 [min/km] 0:12:01
62 229 RZEZAK ALEKSANDRA K 29 K 30-39 12 REDA 5km 0:24:39 12.17 [km/h] 0:04:56 [min/km] 0:12:41
63 195 OKROJ MARTA K 30 K 30-39 13 RUMIA 5km 0:24:39 12.17 [km/h] 0:04:56 [min/km] 0:13:00
64 256 SZULC KATARZYNA K 31 K 30-39 14 GDAŃSK 5km 0:24:40 12.16 [km/h] 0:04:56 [min/km] 0:12:36
65 159 LILA MICHAŁ M 34 M 19-29 13 ŁAPALICE 5km 0:24:41 12.15 [km/h] 0:04:56 [min/km] 0:12:47
66 1 ADAMCZYK ANNA K 32 K 30-39 15 GDYNIA 5km 0:24:46 12.11 [km/h] 0:04:57 [min/km] 0:12:22
67 203 PASEK PATRYCJA K 33 K 19-29 5 KOSZALIN 5km 0:24:50 12.08 [km/h] 0:04:58 [min/km] 0:13:04
68 41 DETTLAFF ANNA K 34 K 30-39 16 BRZYNO DRUŻYNA RADOŚĆ BIEGANIA 5km 0:24:57 12.02 [km/h] 0:04:59 [min/km] 0:12:34
69 142 KUŹMA MATEUSZ M 35 M 30-39 9 KOWALE 5km 0:24:59 12.01 [km/h] 0:05:00 [min/km] 0:12:34
70 208 PIETRUSZKIEWICZ KRZYSZTOF M 36 M 30-39 10 CELBOWO ZDROWIE NA BANK 5km 0:25:04 11.97 [km/h] 0:05:01 [min/km] 0:13:16
71 3 BARTNICKI KORDIAN M 37 M 19-29 14 GDYNIA JUMPCITY 5km 0:25:06 11.95 [km/h] 0:05:01 [min/km] 0:12:58
72 70 GRZEGOREK KAMIL M 38 M 19-29 15 GDYNIA JUMPCITY 5km 0:25:07 11.94 [km/h] 0:05:01 [min/km] 0:00:00
73 73 HALMAN MIROSŁAWA K 35 K 40-49 8 LUZINO 5km 0:25:10 11.92 [km/h] 0:05:02 [min/km] 0:12:34
74 63 GÓRNIAK JAROSŁAW M 39 M 30-39 11 POGÓRZE 5km 0:25:17 11.87 [km/h] 0:05:03 [min/km] 0:14:32
75 226 RUDEK MAŁGORZATA K 36 K 40-49 9 RUMIA 5km 0:25:18 11.86 [km/h] 0:05:04 [min/km] 0:13:02
76 86 HINTZKE JULIA K 37 K 19-29 6 GDAŃSK 5km 0:25:19 11.85 [km/h] 0:05:04 [min/km] 0:13:09
77 285 ZASADA - HUMBLA WIOLETTA K 38 K 40-49 10 GDYNIA 5km 0:25:21 11.83 [km/h] 0:05:04 [min/km] 0:12:49
78 287 ZIMNA AGNIESZKA K 39 K 30-39 17 TCZEW REEBOK RUN CREW TCZEW 5km 0:25:22 11.83 [km/h] 0:05:04 [min/km] 0:13:22
79 278 WITEK SYLWIA K 40 K 40-49 11 POGORZAŁA WIEŚ 5km 0:25:22 11.83 [km/h] 0:05:04 [min/km] 0:13:22
80 265 TREDER PATRYCJA K 41 K 30-39 18 RUMIA 5km 0:25:22 11.83 [km/h] 0:05:04 [min/km] 0:13:07
81 269 WASILEWSKI MARCIN M 40 M 40-49 3 GDYNIA BIGYELLOWFOOT ADVENTURE TEAM 5km 0:25:38 11.70 [km/h] 0:05:08 [min/km] 0:12:59
82 237 SIKORSKA ALEKSANDRA K 42 K 40-49 12 WEJHEROWO 5km 0:25:41 11.68 [km/h] 0:05:08 [min/km] 0:13:06
83 216 PRIEBE DAMIAN M 41 M 40-49 4 REDA 5km 0:25:53 11.59 [km/h] 0:05:11 [min/km] 0:13:16
84 23 CICHOŃ ALEKSANDRA K 43 K DECATHLON 2 REDA DECATHLON 5km 0:25:56 11.57 [km/h] 0:05:11 [min/km] 0:12:55
85 170 MARCINIUK KAROLINA K 44 K 30-39 19 RUMIA 5km 0:25:58 11.55 [km/h] 0:05:12 [min/km] 0:13:04
86 199 PALKA ANNA K 45 K 19-29 7 RUMIA KONTENER FORMY 5km 0:26:00 11.54 [km/h] 0:05:12 [min/km] 0:13:01
87 51 DZIENISZ JUSTYNA K 46 K 40-49 13 ROBAKOWO 5km 0:26:07 11.49 [km/h] 0:05:13 [min/km] 0:12:45
88 234 SEMERLING ANNA K 47 K DECATHLON 3 RUMIA DECATHLON RUMIA DECATHLON 5km 0:26:12 11.45 [km/h] 0:05:14 [min/km] 0:13:13
89 214 POTRYKUS KACPER M 42 M 0-14 3 KĘBŁOWO 5km 0:26:16 11.42 [km/h] 0:05:15 [min/km] 0:13:47
90 283 ZARADNA JULIA K 48 K 19-29 8 RUMIA 5km 0:26:20 11.39 [km/h] 0:05:16 [min/km] 0:13:20
91 193 NOWAKOWSKA ALEKSANDRA K 49 K 19-29 9 RUMIA 5km 0:26:29 11.33 [km/h] 0:05:18 [min/km] 0:13:35
92 125 KOTŁOWSKA MARLENA K 50 K 40-49 14 KWIDZYN KWIDZYN BIEGA 5km 0:26:34 11.29 [km/h] 0:05:19 [min/km] 0:13:24
93 300 TROKA SYLWIA K 51 K 30-39 20 ŻUKOWO ŻUKOWO 5km 0:26:35 11.29 [km/h] 0:05:19 [min/km] 0:13:03
94 231 SARNOWSKA ALEKSANDRA K 52 K 40-49 15 GDYNIA KONTENER FORMY 5km 0:26:41 11.24 [km/h] 0:05:20 [min/km] 0:13:02
95 213 POPEK NATALIA K 53 K 0-14 1 GDYNIA SP 43 GDYNIA 5km 0:26:45 11.21 [km/h] 0:05:21 [min/km] 0:13:11
96 217 PUZDROWSKI DANIEL M 43 M 30-39 12 GOWINO 5km 0:26:47 11.20 [km/h] 0:05:21 [min/km] 0:13:09
97 236 SIKORSKA AGNIESZKA K 54 K 30-39 21 GDYNIA BEZ KLUBU 5km 0:26:50 11.18 [km/h] 0:05:22 [min/km] 0:14:20
98 20 CHACHOWSKA MARTYNA K 55 K DECATHLON 4 RUMIA DECATHLON 5km 0:26:54 11.15 [km/h] 0:05:23 [min/km] 0:13:32
99 303 MUTTKA KAROLINA K 56 K 30-39 22 ODARGOWO 5km 0:26:56 11.14 [km/h] 0:05:23 [min/km] 0:13:37
100 282 ZAPARTY MADGALENA K 57 K DECATHLON 5 RUMIA DECATHLON RUMIA DECATHLON 5km 0:26:57 11.13 [km/h] 0:05:23 [min/km] 0:13:56
101 8 BLADOWSKI MIKOŁAJ M 44 M 0-14 4 REDA 5km 0:27:01 11.10 [km/h] 0:05:24 [min/km] 0:13:59
102 289 ZWATYKANICZ MARTYNA K 58 K 40-49 16 GDYNIA 5km 0:27:07 11.06 [km/h] 0:05:25 [min/km] 0:13:08
103 254 SZTYGIEL NIKOLA K 59 K 0-14 2 WEJHEROWO DEKORADO 5km 0:27:09 11.05 [km/h] 0:05:26 [min/km] 0:12:56
104 222 RESEMAN SYLWIA K 60 K 50-59 2 ŻUKOWO FACE NORDIC WALKIN TEAM 5km 0:27:12 11.03 [km/h] 0:05:26 [min/km] 0:13:37
105 34 DANCEWICZ BARTEK M 45 M 0-14 5 GDYNIA 5km 0:27:19 10.98 [km/h] 0:05:28 [min/km] 0:12:39
106 9 BLUMKOWSKA KAROLINA K 61 K 19-29 10 RUMIA RUN_WITH_BLUMCIA 5km 0:27:22 10.96 [km/h] 0:05:28 [min/km] 0:14:13
107 107 KASPRZYK KATARZYNA K 62 K DECATHLON 6 GDYNIA DECATHLON RUMIA DECATHLON 5km 0:27:22 10.96 [km/h] 0:05:28 [min/km] 0:14:16
108 65 GRĄDZKA JUSTYNA K 63 K DECATHLON 7 PIASECZNO DECATHLON RUMIA DECATHLON 5km 0:27:22 10.96 [km/h] 0:05:28 [min/km] 0:14:16
109 93 JANTOWSKA MAŁGORZATA K 64 K 50-59 3 REDA MOTYWATORNIA TEAM 5km 0:27:32 10.90 [km/h] 0:05:30 [min/km] 0:14:11
110 202 PARDYKA JUSTYNA K 65 K 40-49 17 GDYNIA WYMIATACZE 5km 0:27:33 10.89 [km/h] 0:05:31 [min/km] 0:14:22
111 35 DANIELEWSKA MAGDALENA K 66 K 40-49 18 STARY TARG AKTYWNIE Z MOLKAMI 5km 0:27:36 10.87 [km/h] 0:05:31 [min/km] 0:13:34
112 88 HOOG WIOLETA K 67 K 30-39 23 MIŁORADZ 5km 0:27:37 10.86 [km/h] 0:05:31 [min/km] 0:13:35
113 155 LEWANDOWSKA BEATA K 68 K 30-39 24 WEJHEROWO STOWARZYSZENIE WEJHEROWSKI KLUB MORSÓW 5km 0:27:37 10.86 [km/h] 0:05:31 [min/km] 0:13:36
114 276 WIŚNIEWSKA MAŁGORZATA K 69 K 30-39 25 GDYNIA 5km 0:27:37 10.86 [km/h] 0:05:31 [min/km] 0:13:54
115 248 SZOPA MAŁGORZATA K 70 K 40-49 19 GDYNIA RUNEDA 5km 0:27:38 10.86 [km/h] 0:05:32 [min/km] 0:14:32
116 249 SZOPA MAREK M 46 M 40-49 5 GDYNIA RUNEDA 5km 0:27:38 10.86 [km/h] 0:05:32 [min/km] 0:14:30
117 22 CHOJNACKA OLGA K 71 K 40-49 20 RYBNO 5km 0:27:38 10.86 [km/h] 0:05:32 [min/km] 0:13:35
118 258 SZYMASZEK ALEKSANDRA K 72 K 19-29 11 RUMIA 5km 0:27:40 10.84 [km/h] 0:05:32 [min/km] 0:14:11
119 243 STUDNICKA NATALIA K 73 K DECATHLON 8 WEJHEROWO DECATHLON RUMIA DECATHLON 5km 0:27:44 10.82 [km/h] 0:05:33 [min/km] 0:14:01
120 187 MUSZOL GOSIA K 74 K DECATHLON 9 GDYNIA DECATHLON RUMIA DECATHLON 5km 0:27:44 10.82 [km/h] 0:05:33 [min/km] 0:14:01
121 257 SZYLER ANDRZEJ M 47 M 50-59 4 GDAŃSK BIEGNĘ DLA KAROLINY 5km 0:27:50 10.78 [km/h] 0:05:34 [min/km] 0:13:29
122 111 KLASS MARTA K 75 K 19-29 12 GOŚCICINO 5km 0:27:52 10.77 [km/h] 0:05:34 [min/km] 0:13:24
123 104 KARBOWSKA KINGA K 76 K 30-39 26 GDAŃSK 5km 0:27:54 10.75 [km/h] 0:05:35 [min/km] 0:13:42
124 137 KUJAT JOANNA K 77 K 30-39 27 GDYNIA KONTENER FORMY 5km 0:27:55 10.75 [km/h] 0:05:35 [min/km] 0:13:34
125 290 ZWIERZCHOWSKA ALEKSANDRA K 78 K 19-29 13 MOSTY 5km 0:28:05 10.68 [km/h] 0:05:37 [min/km] 0:14:50
126 13 BRZOSKOWSKA MARKIEWICZ BEATA K 79 K 40-49 21 WEJHEROWO 5km 0:28:07 10.67 [km/h] 0:05:37 [min/km] 0:13:42
127 18 CEBIENKO-ŻACZEK EUGENIA K 80 K 30-39 28 BALDRAM 5km 0:28:11 10.64 [km/h] 0:05:38 [min/km] 0:13:58
128 176 MIELEWCZYK JUSTYNA K 81 K 30-39 29 REDA ZMOTYWOWANI 5km 0:28:14 10.63 [km/h] 0:05:39 [min/km] 0:15:13
129 259 SZYMCZAK AGATA K 82 K 15-18 2 GDYNIA 5km 0:28:14 10.63 [km/h] 0:05:39 [min/km] 0:14:39
130 27 CZAPLIŃSKA DARIA K 83 K 15-18 3 WEJHEROWO 5km 0:28:14 10.63 [km/h] 0:05:39 [min/km] 0:14:39
131 189 NADROWSKA DARIA K 84 K 15-18 4 ŻELISTRZEWO 5km 0:28:14 10.63 [km/h] 0:05:39 [min/km] 0:14:40
132 59 GAZARKIEWICZ DOROTA K 85 K 30-39 30 RUMIA 5km 0:28:17 10.61 [km/h] 0:05:39 [min/km] 0:15:05
133 123 KOSTRZEWSKA MARTA K 86 K DECATHLON 10 RUMIA DECATHLON RUMIA DECATHLON 5km 0:28:17 10.61 [km/h] 0:05:39 [min/km] 0:14:08
134 205 PAWLIK EWELINA K 87 K DECATHLON 11 RUMIA DECATHLON RUMIA DECATHLON 5km 0:28:18 10.60 [km/h] 0:05:40 [min/km] 0:14:06
135 165 ŁAGA DOROTA K 88 K 30-39 31 LUZINO ZMOTYWOWANI 5km 0:28:28 10.54 [km/h] 0:05:42 [min/km] 0:15:13
136 43 DMOWSKI KONRAD M 48 M 0-14 6 WEJHEROWO 5km 0:28:29 10.53 [km/h] 0:05:42 [min/km] 0:15:20
137 44 DMOWSKI ROBERT M 49 M 30-39 13 WEJHEROWO 5km 0:28:30 10.53 [km/h] 0:05:42 [min/km] 0:14:51
138 143 KUŻDŻAŁ LUCYNA K 89 K 30-39 32 GDYNIA 5km 0:28:37 10.48 [km/h] 0:05:43 [min/km] 0:14:36
139 184 MODZELEWSKA PATRYCJA K 90 K 30-39 33 REDA 5km 0:28:45 10.43 [km/h] 0:05:45 [min/km] 0:14:26
140 129 KRASIŃSKA-MITURA EWA K 91 K 30-39 34 RUMIA PARKRUN RUMIA 5km 0:28:51 10.40 [km/h] 0:05:46 [min/km] 0:14:38
141 182 MITURA ZUZANNA K 92 K 0-14 3 RUMIA PARKRUN RUMIA 5km 0:28:51 10.40 [km/h] 0:05:46 [min/km] 0:14:39
142 39 DERHELD DOROTA K 93 K 30-39 35 GDYNIA 5km 0:28:56 10.37 [km/h] 0:05:47 [min/km] 0:14:18
143 233 SCHWAN AGNIESZKA K 94 K 30-39 36 RUMIA 5km 0:29:00 10.34 [km/h] 0:05:48 [min/km] 0:14:31
144 90 JAFFKE PATRYCJA K 95 K 15-18 5 ŁEBCZ TEAM JAFFKE 5km 0:29:01 10.34 [km/h] 0:05:48 [min/km] 0:13:50
145 91 JAKUBOWICZ PAULINA K 96 K 19-29 14 GDYNIA 5km 0:29:02 10.33 [km/h] 0:05:48 [min/km] 0:13:32
146 89 JAFFKE JAROSŁAW M 50 M 40-49 6 ŁEBCZ KASZEBE ŁEBCZ 5km 0:29:02 10.33 [km/h] 0:05:48 [min/km] 0:13:49
147 149 LAS KONSTANCJA K 97 K 19-29 15 PARCHOWO 5km 0:29:06 10.31 [km/h] 0:05:49 [min/km] 0:15:40
148 76 HEJMOWSKA BARBARA K 98 K 40-49 22 WIDLINO 5km 0:29:09 10.29 [km/h] 0:05:50 [min/km] 0:14:25
149 109 KAZIMIERSKA KASIA K 99 K 30-39 37 GDYNIA 5km 0:29:12 10.27 [km/h] 0:05:50 [min/km] 0:14:36
150 264 TORA MALWINA K 100 K DECATHLON 12 RUMIA DECATHLON RUMIA DECATHLON 5km 0:29:13 10.27 [km/h] 0:05:51 [min/km] 0:00:00
151 242 STENCEL HANNA K 101 K 40-49 23 WEJHEROWO 5km 0:29:37 10.13 [km/h] 0:05:55 [min/km] 0:15:06
152 291 ŻURAWSKA MONIKA K 102 K 19-29 16 REDA 5km 0:29:39 10.12 [km/h] 0:05:56 [min/km] 0:15:19
153 225 RUCZYŃSKI MACIEJ M 51 M 50-59 5 RUMIA PARKRUN RUMIA 5km 0:29:45 10.08 [km/h] 0:05:57 [min/km] 0:15:36
154 263 TOPOREK ALEKSANDRA K 103 K 40-49 24 GDYNIA ELITE TEAM 5km 0:29:46 10.08 [km/h] 0:05:57 [min/km] 0:14:45
155 52 ERLICH IWONA K 104 K 19-29 17 WEJHEROWO 5km 0:29:49 10.06 [km/h] 0:05:58 [min/km] 0:15:32
156 132 KRĘCIDŁO ANNA K 105 K 30-39 38 WEJHEROWO 5km 0:29:49 10.06 [km/h] 0:05:58 [min/km] 0:15:33
157 275 WISZNIEWSKA ZYTA K 106 K 30-39 39 GDAŃSK 5km 0:29:51 10.05 [km/h] 0:05:58 [min/km] 0:15:31
158 297 DORAWA ZBIGNIEW M 52 M 40-49 7 RUMIA - 5km 0:29:57 10.02 [km/h] 0:05:59 [min/km] 0:15:38
159 48 DUSZYŃSKA ANNA K 107 K 19-29 18 GDAŃSK TEAM DUSZKA 5km 0:30:02 9.99 [km/h] 0:06:00 [min/km] 0:14:50
160 201 PANEK ANETA K 108 K 40-49 25 GDYNIA STEP BY STEP TRÓJMIASTO 5km 0:30:04 9.98 [km/h] 0:06:01 [min/km] 0:15:05
161 32 ĆWIKLIŃSKA IWONA K 109 K 40-49 26 GDYNIA 5km 0:30:04 9.98 [km/h] 0:06:01 [min/km] 0:15:05
162 220 RADTKE MAGDALENA K 110 K 30-39 40 PUCK 5km 0:30:05 9.97 [km/h] 0:06:01 [min/km] 0:15:42
163 147 LACHOWICZ-PIANKA ANNA K 111 K 40-49 27 NIDZICA NIDZICA BIEGA 5km 0:30:26 9.86 [km/h] 0:06:05 [min/km] 0:14:57
164 12 BRODECKA MAŁGORZATA K 112 K 30-39 41 GDYNIA 17 LO GDYNIA 5km 0:30:27 9.85 [km/h] 0:06:05 [min/km] 0:14:59
165 302 KORTH TOMASZ M 53 M 30-39 14 ODARGOWO 5km 0:30:49 9.73 [km/h] 0:06:10 [min/km] 0:14:31
166 262 ŚWIAT ANNA K 113 K 0-14 4 GDYNIA SZKOŁA PODSTAWOWA NR 43 GDYNIA 5km 0:30:57 9.69 [km/h] 0:06:11 [min/km] 0:16:31
167 298 ERDMANN AGNIESZKA K 114 K 40-49 28 RUMIA - 5km 0:30:58 9.69 [km/h] 0:06:12 [min/km] 0:15:37
168 296 KRÓL LILIANA K 115 K 30-39 42 RUMIA - 5km 0:30:58 9.69 [km/h] 0:06:12 [min/km] 0:15:38
169 110 KAŹMIERSKA AGNIESZKA K 116 K 19-29 19 GDAŃSK/SZPROTAWA THYSSENKRUPP RUNNING TEAM 5km 0:31:00 9.68 [km/h] 0:06:12 [min/km] 0:00:00
170 42 DMOWSKA AGNIESZKA K 117 K 30-39 43 WEJHEROWO 5km 0:31:13 9.61 [km/h] 0:06:15 [min/km] 0:15:19
171 232 SCHMIDT AGNIESZKA K 118 K 30-39 44 PUCK 5km 0:31:16 9.59 [km/h] 0:06:15 [min/km] 0:15:42
172 166 ŁUSZCZ DOMINIKA K 119 K 30-39 45 GDYNIA 5km 0:31:21 9.57 [km/h] 0:06:16 [min/km] 0:15:43
173 113 KOGUT MONIKA K 120 K 19-29 20 TCZEW 5km 0:31:39 9.48 [km/h] 0:06:20 [min/km] 0:15:50
174 136 KUCHLER MAŁGORZATA K 121 K 40-49 29 GDYNIA 5km 0:31:55 9.40 [km/h] 0:06:23 [min/km] 0:15:44
175 209 PISKULSKA NIKOLA K 122 K 19-29 21 GDYNIA 5km 0:32:00 9.38 [km/h] 0:06:24 [min/km] 0:15:41
176 92 JANCZEWSKA MONIKA K 123 K 19-29 22 RUMIA JUMPCITY 5km 0:32:00 9.38 [km/h] 0:06:24 [min/km] 0:14:43
177 118 KONOPCZYŃSKA JAGODA K 124 K 19-29 23 RUMIA 5km 0:32:00 9.38 [km/h] 0:06:24 [min/km] 0:14:42
178 130 KRASZEWSKA JULIA K 125 K 19-29 24 GDYNIA JUMPCITY 5km 0:32:00 9.38 [km/h] 0:06:24 [min/km] 0:14:44
179 293 ŻYWICKA NATALIA K 126 K DECATHLON 13 REDA DECATHLON PRZYMORZE DECATHLON 5km 0:32:07 9.34 [km/h] 0:06:25 [min/km] 0:15:31
180 167 MACH DAWID M 54 M 30-39 15 WEJHEROWO ONE PERSON TEAM 5km 0:32:10 9.33 [km/h] 0:06:26 [min/km] 0:15:23
181 309 GIBAS BARBARA K 127 K 40-49 30 DĘBOGÓRZE WYBUDOWANIE 0 5km 0:32:11 9.32 [km/h] 0:06:26 [min/km] 0:15:40
182 68 GRUBBA KRZYSZTOF M 55 M 30-39 16 WEJHEROWO 5km 0:32:11 9.32 [km/h] 0:06:26 [min/km] 0:15:21
183 60 GELO PATRYK M 56 M DECATHLON 3 REDA DECATHLON RUMIA DECATHLON 5km 0:32:12 9.32 [km/h] 0:06:26 [min/km] 0:15:31
184 5 BETLEJEWSKA OLIWIA K 128 K 15-18 6 CZĘSTOCHOWA ROZBIEGANI Z PCZ 5km 0:32:15 9.30 [km/h] 0:06:27 [min/km] 0:17:05
185 307 SPECHT MAGDALENA K 129 K 40-49 31 RUMIA - 5km 0:32:21 9.27 [km/h] 0:06:28 [min/km] 0:15:39
186 105 KARPIUSZ EDYTA K 130 K 40-49 32 GDYNIA JATRENUJE 5km 0:32:21 9.27 [km/h] 0:06:28 [min/km] 0:15:40
187 173 MĄCZKOWSKA WIOLETTA K 131 K 40-49 33 REDA JATRENUJE 5km 0:32:22 9.27 [km/h] 0:06:28 [min/km] 0:15:39
188 240 STASIAK-BETLEJEWSKA RENATA K 132 K 40-49 34 CZĘSTOCHOWA ROZBIEGANI Z PCZ 5km 0:32:22 9.27 [km/h] 0:06:28 [min/km] 0:17:04
189 227 RUDEK OLA K 133 K 0-14 5 RUMIA 5km 0:32:22 9.27 [km/h] 0:06:28 [min/km] 0:15:18
190 253 SZTYGIEL MACIEJ M 57 M 40-49 8 WEJHEROWO DEKORADO 5km 0:32:22 9.27 [km/h] 0:06:28 [min/km] 0:16:23
191 251 SZTYGIEL IGOR M 58 M 0-14 7 WEJHEROWO DEKORADO 5km 0:32:23 9.26 [km/h] 0:06:29 [min/km] 0:16:23
192 16 BURY LILIANA K 134 K 30-39 46 REDA ZMOTYWOWANI 5km 0:32:24 9.26 [km/h] 0:06:29 [min/km] 0:16:25
193 252 SZTYGIEL JOANNA K 135 K 30-39 47 WEJHEROWO DEKORADO 5km 0:32:28 9.24 [km/h] 0:06:30 [min/km] 0:16:24
194 25 CIEŚLUKOWSKA AGATA K 136 K 30-39 48 GDYNIA 5km 0:32:30 9.23 [km/h] 0:06:30 [min/km] 0:15:39
195 198 PAJOR KASIA K 137 K 30-39 49 GDYNIA 5km 0:32:32 9.22 [km/h] 0:06:30 [min/km] 0:00:00
196 126 KOWALEWSKA ALEKSANDRA K 138 K 19-29 25 RUMIA 5km 0:32:32 9.22 [km/h] 0:06:30 [min/km] 0:15:28
197 279 WITKOWSKI ADRIAN M 59 M 19-29 16 BOLSZEWO 5km 0:32:33 9.22 [km/h] 0:06:31 [min/km] 0:15:28
198 148 LANC BEATA K 139 K 30-39 50 RUMIA 5km 0:32:33 9.22 [km/h] 0:06:31 [min/km] 0:15:33
199 115 KOLASIŃSKA KLAUDIA K 140 K 19-29 26 RUMIA 5km 0:32:34 9.21 [km/h] 0:06:31 [min/km] 0:15:34
200 154 LEWANCZYK-MUSZYŃSKA DARIA K 141 K 19-29 27 GDAŃSK 5km 0:32:53 9.12 [km/h] 0:06:35 [min/km] 0:15:53
201 153 LEWANCZYK KRZYSZTOF M 60 M 19-29 17 GDAŃSK 5km 0:32:53 9.12 [km/h] 0:06:35 [min/km] 0:15:52
202 82 HEYKA JAROSŁAW M 61 M 40-49 9 LĘBORK 5km 0:32:56 9.11 [km/h] 0:06:35 [min/km] 0:15:23
203 81 HEYKA EWA K 142 K 40-49 35 LĘBORK POLTAREX GODĘTOWO 5km 0:32:56 9.11 [km/h] 0:06:35 [min/km] 0:15:23
204 141 KUTNIEWSKA MARIA K 143 K 60+ 1 ŻUKOWO FACE NORDIC WALKING TEAM 5km 0:33:07 9.06 [km/h] 0:06:37 [min/km] 0:17:08
205 119 KOPCZYŃSKA IRENA K 144 K 60+ 2 BORKOWO ELITE TEAM 5km 0:33:08 9.05 [km/h] 0:06:38 [min/km] 0:17:09
206 40 DERKOWSKA DOROTA K 145 K 50-59 4 GDYNIA 5km 0:33:19 9.00 [km/h] 0:06:40 [min/km] 0:15:56
207 127 KOWALSKA AGNIESZKA K 146 K 30-39 51 REDA 5km 0:33:24 8.98 [km/h] 0:06:41 [min/km] 0:16:59
208 156 LEWNA KINGA K 147 K 30-39 52 KARTUZY 5km 0:33:36 8.93 [km/h] 0:06:43 [min/km] 0:16:40
209 62 GOMÓŁKA-BIGUS MONIKA K 148 K 40-49 36 GDYNIA STEP BY STEP TRÓJMIASTO 5km 0:33:40 8.91 [km/h] 0:06:44 [min/km] 0:16:43
210 219 RADECKA ILONA K 149 K 30-39 53 GDAŃSK 5km 0:33:59 8.83 [km/h] 0:06:48 [min/km] 0:16:54
211 178 MIKUŁA EWELINA K 150 K 30-39 54 GDYNIA 5km 0:33:59 8.83 [km/h] 0:06:48 [min/km] 0:16:55
212 72 GWIZDAŁA ALEKSANDRA K 151 K 30-39 55 GDYNIA 5km 0:34:00 8.82 [km/h] 0:06:48 [min/km] 0:16:55
213 139 KURPIEWSKA MONIKA K 152 K 30-39 56 GDAŃSK 5km 0:34:35 8.67 [km/h] 0:06:55 [min/km] 0:16:26
214 177 MIKLIŃSKA-LIPKA EWA K 153 K 40-49 37 GDYNIA MAMA, ZRÓB KAKAO. 5km 0:34:39 8.66 [km/h] 0:06:56 [min/km] 0:17:33
215 162 LIPKA TYMOTEUSZ M 62 M 0-14 8 GDYNIA MAMA, ZRÓB KAKAO. 5km 0:34:39 8.66 [km/h] 0:06:56 [min/km] 0:17:31
216 161 LIPKA ANTONINA K 154 K 0-14 6 GDYNIA MAMA, ZRÓB KAKAO. 5km 0:34:39 8.66 [km/h] 0:06:56 [min/km] 0:17:32
217 164 LUBOWIECKA ALICJA K 155 K 30-39 57 WEJHEROWO STOWARZYSZENIE WEJHEROWSKI KLUB MORSÓW 5km 0:34:41 8.65 [km/h] 0:06:56 [min/km] 0:16:43
218 30 CZOSKA ANNA K 156 K 30-39 58 POGÓRZE 5km 0:34:48 8.62 [km/h] 0:06:58 [min/km] 0:17:03
219 31 CZOSKA PRZEMYSŁAW M 63 M 30-39 17 GDYNIA 5km 0:34:48 8.62 [km/h] 0:06:58 [min/km] 0:17:03
220 185 MOKŁOWICZ ANIA K 157 K 30-39 59 WEJHEROWO ZNIKAJACE PUNKTY 5km 0:34:52 8.60 [km/h] 0:06:58 [min/km] 0:16:42
221 224 ROMANOWSKA MARIA K 158 K 30-39 60 REDA 5km 0:34:52 8.60 [km/h] 0:06:58 [min/km] 0:17:04
222 244 SULEK KAROLINA K 159 K 30-39 61 RUMIA 5km 0:35:01 8.57 [km/h] 0:07:00 [min/km] 0:17:23
223 116 KOŁACZYŃSKA MONIKA K 160 K 40-49 38 POGÓRZE STEP BY STEP TRÓJMIASTO 5km 0:35:09 8.53 [km/h] 0:07:02 [min/km] 0:17:42
224 122 KOREJWO KAROL M 64 M 30-39 18 REDA 5km 0:35:14 8.51 [km/h] 0:07:03 [min/km] 0:16:11
225 28 CZECH FABIAN M 65 M 0-14 9 REDA 5km 0:35:14 8.51 [km/h] 0:07:03 [min/km] 0:16:10
226 121 KOREJWO ALEKSANDRA K 161 K 19-29 28 REDA 5km 0:35:14 8.51 [km/h] 0:07:03 [min/km] 0:16:15
227 7 BLADOWSKA KATARZYNA K 162 K 40-49 39 REDA 5km 0:35:36 8.43 [km/h] 0:07:07 [min/km] 0:16:59
228 171 MARDZIŃSKA SYLWIA K 163 K 40-49 40 WEJHEROWO MAJA TEAM 5km 0:35:36 8.43 [km/h] 0:07:07 [min/km] 0:17:48
229 288 ZIMOŃ MAGDALENA K 164 K 30-39 62 REDA RUNEDA 5km 0:35:36 8.43 [km/h] 0:07:07 [min/km] 0:18:00
230 286 ZAWADZKA PAULINA K 165 K 19-29 29 REDA RUNEDA 5km 0:35:36 8.43 [km/h] 0:07:07 [min/km] 0:17:00
231 26 CISOWSKA ALEKSANDRA K 166 K 30-39 63 RUMIA 5km 0:35:36 8.43 [km/h] 0:07:07 [min/km] 0:17:00
232 186 MROSKE OLIWIA K 167 K 19-29 30 WEJHEROWO 5km 0:35:38 8.42 [km/h] 0:07:08 [min/km] 0:16:52
233 280 WNUK EMILIA WNUK M 66 M 19-29 18 GDYNIA 5km 0:35:39 8.42 [km/h] 0:07:08 [min/km] 0:16:51
234 261 ŚWIAT BEATA K 168 K 30-39 64 GDYNIA 5km 0:35:43 8.40 [km/h] 0:07:09 [min/km] 0:17:20
235 212 POPEK IRINA K 169 K 30-39 65 GDYNIA 5km 0:35:44 8.40 [km/h] 0:07:09 [min/km] 0:17:20
236 58 GAWRYLCZYK NINA K 170 K 0-14 7 GDYNIA 5km 0:35:57 8.34 [km/h] 0:07:11 [min/km] 0:17:03
237 267 TRZCINSKA OLGA K 171 K 0-14 8 SKOWARCZ 5km 0:36:05 8.31 [km/h] 0:07:13 [min/km] 0:18:22
238 4 BEDNARSKA EDYTA K 172 K 40-49 41 GDYNIA BYLE DO PRZODU :) 5km 0:36:06 8.31 [km/h] 0:07:13 [min/km] 0:16:55
239 266 TRZCINSKA MONIKA K 173 K 30-39 66 SKOWARCZ, 5km 0:36:08 8.30 [km/h] 0:07:14 [min/km] 0:18:22
240 95 JANUSZKIEWICZ JAROSŁAW M 67 M 19-29 19 RUMIA 5km 0:36:37 8.19 [km/h] 0:07:19 [min/km] 0:17:47
241 235 SEMERLING WERONIKA K 174 K 19-29 31 RUMIA 5km 0:36:37 8.19 [km/h] 0:07:19 [min/km] 0:17:47
242 37 DEIK ELŻBIETA K 175 K 60+ 3 PRZYJAŹŃ 5km 0:38:10 7.86 [km/h] 0:07:38 [min/km] 0:19:08
243 200 PAŁASZ EDMUND M 68 M 70+ 1 RUMIA 5km 0:38:11 7.86 [km/h] 0:07:38 [min/km] 0:19:09
244 150 LESZCZYŃSKA MILANA K 176 K 0-14 9 GDAŃSK 5km 0:38:38 7.77 [km/h] 0:07:44 [min/km] 0:17:53
245 163 LISIECKI JAKUB M 69 M 19-29 20 GDAŃSK BIGYELLOWFOOT ADVENTURE TEAM 5km 0:38:39 7.76 [km/h] 0:07:44 [min/km] 0:18:04
246 190 NIECHOĆKO AGATA K 177 K 40-49 42 GDAŃSK 5km 0:38:43 7.75 [km/h] 0:07:45 [min/km] 0:18:04
247 21 CHARKIEWICZ MONIKA K 178 K 30-39 67 STRASZYN 5km 0:38:43 7.75 [km/h] 0:07:45 [min/km] 0:18:05
248 77 HEJMOWSKA BEATA K 179 K 40-49 43 POŁCHOWO 5km 0:38:50 7.73 [km/h] 0:07:46 [min/km] 0:19:17
249 78 HEJMOWSKA DOMINIKA K 180 K 0-14 10 POŁCHOWO 5km 0:38:50 7.73 [km/h] 0:07:46 [min/km] 0:19:18
250 79 HEJMOWSKI MAREK M 70 M 30-39 19 POŁCHOWO 5km 0:38:55 7.71 [km/h] 0:07:47 [min/km] 0:19:17
251 181 MISZEWSKI TYMOTEUSZ M 71 M 0-14 10 RUMIA SP9 RUMIA 5km 0:39:15 7.64 [km/h] 0:07:51 [min/km] 0:19:24
252 180 MISZEWSKA MARCELINA K 181 K 15-18 7 RUMIA 5km 0:39:15 7.64 [km/h] 0:07:51 [min/km] 0:19:29
253 179 MISZEWSKA MAŁGORZATA K 182 K 40-49 44 RUMIA DALEKO JESZCZE 5km 0:39:15 7.64 [km/h] 0:07:51 [min/km] 0:19:28
- 6 BIEGANSKA SANDRA K - K 19-29 - GDANSK 5km DNS - [km/h] 09:00 [min/km] 0:00:00
- 10 BORZYSZKOWSKA JOLANTA K - K 60+ - PUCK BEZ KIJA NIE PODCHODŹ 5km DNS - [km/h] 09:00 [min/km] 0:00:00
- 11 BORZYSZKOWSKI BARTŁOMIEJ M - M 19-29 - GDYNIA JUMPCITY 5km DNS - [km/h] 09:00 [min/km] 0:00:00
- 14 BUKOWSKA EDYTA K - K 19-29 - GDAŃSK JUMPCITY 5km DNS - [km/h] 09:00 [min/km] 0:00:00
- 15 BUKOWSKA JOANNA K - K 19-29 - GDAŃSK JUMPCITY 5km DNS - [km/h] 09:00 [min/km] 0:00:00
- 24 CIESEK TADEUSZ M - M DECATHLON - REDA DECATHLON RUMIA DECATHLON 5km DNS - [km/h] 09:00 [min/km] 0:00:00
- 29 CZECH KEIRA K - K 0-14 - REDA 5km DNS - [km/h] 09:00 [min/km] 0:00:00
- 38 DENERT JAN M - M 19-29 - AUGUSTÓW THE NORTH EVENT 5km DNS - [km/h] 09:00 [min/km] 0:00:00
- 46 DOBKOWSKA AGNIESZKA K - K 40-49 - WEJHEROWO MTB-MAŁE TRÓJMIASTO BIEGA 5km DNS - [km/h] 09:00 [min/km] 0:00:00
- 49 DUSZYŃSKA KAROLINA K - K 19-29 - GDAŃSK 5km DNS - [km/h] 09:00 [min/km] 0:00:00
- 53 FLEMMING MICHAŁ M - M 30-39 - GDYNIA 5km DNS - [km/h] 09:00 [min/km] 0:00:00
- 54 FREITAG RAFAŁ M - M 30-39 - LUZINO 5km DNS - [km/h] 09:00 [min/km] 0:00:00
- 61 GOLEC-OKUNIEWSKA AGNIESZKA K - K 30-39 - GDYNIA 5km DNS - [km/h] 09:00 [min/km] 0:00:00
- 64 GÓŹDŹ EDYTA K - K 30-39 - RUMIA 5km DNS - [km/h] 09:00 [min/km] 0:00:00
- 69 GRUCHAŁA MAREK M - M 30-39 - SKOWARCZ 5km DNS - [km/h] 09:00 [min/km] 0:00:00
- 75 HEINOWSKA MAJA K - K 40-49 - GDYNIA 5km DNS - [km/h] 09:00 [min/km] 0:00:00
- 87 HOEFT IWONA K - K 40-49 - GDYNIA 5km DNS - [km/h] 09:00 [min/km] 0:00:00
- 96 JAŻDŻEWSKA BEATA K - K 19-29 - RUMIA BIEGNIJ Z BZYKIEM 5km DNS - [km/h] 09:00 [min/km] 0:00:00
- 97 JONACZYK KATARZYNA K - K 19-29 - GDAŃSK JUMPCITY 5km DNS - [km/h] 09:00 [min/km] 0:00:00
- 133 KRUPNIK SZYMON M - M 30-39 - GDAŃSK JUMPCITY 5km DNS - [km/h] 09:00 [min/km] 0:00:00
- 135 KRYGER ZDZISŁAW M - M 40-49 - MOSTY 5km DNS - [km/h] 09:00 [min/km] 0:00:00
- 138 KUJOT BOŻENA K - K 30-39 - LUZINO 5km DNS - [km/h] 09:00 [min/km] 0:00:00
- 145 LACHOWICZ ADRIAN M - M 30-39 - GDYNIA JUMPCITY 5km DNS - [km/h] 09:00 [min/km] 0:00:00
- 152 LEŚNIAK MACIEJ M - M 30-39 - GDYNIA JUMPCITY 5km DNS - [km/h] 09:00 [min/km] 0:00:00
- 169 MAŁEK ALEKSANDRA K - K 50-59 - KĄPINO RUN BABYS 5km DNS - [km/h] 09:00 [min/km] 0:00:00
- 183 MODRZEJEWSKA ANNA K - K 30-39 - MIŁORADZ 5km DNS - [km/h] 09:00 [min/km] 0:00:00
- 192 NIEMCZYK URSZULA K - K 30-39 - CHOJNICE TOTALNIE BIEGNIĘCI 5km DNS - [km/h] 09:00 [min/km] 0:00:00
- 204 PAŚ ALEKSANDRA K - K 30-39 - GŁOGÓW GEMINI TEAM 5km DNS - [km/h] 09:00 [min/km] 0:00:00
- 223 ROMANOWSKA MAŁGORZATA K - K 30-39 - GDAŃSK 5km DNS - [km/h] 09:00 [min/km] 0:00:00
- 228 RYDLEWICZ JUSTYNA K - K 30-39 - TUCHOM 5km DNS - [km/h] 09:00 [min/km] 0:00:00
- 230 SANKOWSKA SANDRA K - K 30-39 - RUMIA 5km DNS - [km/h] 09:00 [min/km] 0:00:00
- 250 SZREDER BOŻENA K - K 30-39 - RUMIA 5km DNS - [km/h] 09:00 [min/km] 0:00:00
- 273 WERRA PATRYCJA K - K 30-39 - RUMIA RUNEDA 5km DNS - [km/h] 09:00 [min/km] 0:00:00
- 281 WOŹNIAK TOMASZ M - M 40-49 - GDAŃSK 5km DNS - [km/h] 09:00 [min/km] 0:00:00

400 m BIEG DZIECI - Pidżama Run Decathlon 2019

M-ce Numer Nazwisko Imię Płeć Miejscowość Klub DYSTANS Wynik Prędkość km/h x Tempo min/km x
1 56 GAŁUSZYŃSKA NINA K GDYNIA ACTIVE FLOW JUNIOR 400m 0:01:55 12.52 [km/h] 0:04:48 [min/km]
2 146 LACHOWICZ SZYMON M GDYNIA JUMPCITY JUNIOR 400m 0:02:00 12.00 [km/h] 0:05:00 [min/km]
3 168 MAJEWSKA KONSTANCJA K GDYNIA ACTIVE FLOW JUNIOR 400m 0:02:05 11.52 [km/h] 0:05:13 [min/km]
4 66 GRĘDA JAKUB M GDYNIA PRZEDSZKOLE 21 DEMPTUSIOWO 400m 0:02:12 10.91 [km/h] 0:05:30 [min/km]
5 301 LOREK MACIEJ M REDA 400m 0:02:19 10.36 [km/h] 0:05:48 [min/km]
6 308 OBŁUSKI CEZARY M REDA 0 400m 0:02:29 9.66 [km/h] 0:06:13 [min/km]
7 196 OKROY SYLWESTER M PUCK 400m 0:02:38 9.11 [km/h] 0:06:35 [min/km]
8 33 DANCEWICZ AMELIA K GDYNIA 400m 0:02:40 9.00 [km/h] 0:06:40 [min/km]
9 295 SZAŁŁA ZOFIA K GDAŃSK - 400m 0:02:41 8.94 [km/h] 0:06:43 [min/km]
10 197 PACZKOWSKI WOJCIECH M WEJHEROWO 400m 0:02:43 8.83 [km/h] 0:06:48 [min/km]
11 277 WIŚNIEWSKA JULIA K GDYNIA PRZEDSZKOLE 21 DEMPTUSIOWO GDYNIA 400m 0:02:45 8.73 [km/h] 0:06:53 [min/km]
12 312 OLCZYK ŁUKASZ M GDYNIA SUPERKIDS 400m 0:02:46 8.67 [km/h] 0:06:55 [min/km]
13 238 SITNY NIKODEM M RUMIA 400m 0:02:47 8.62 [km/h] 0:06:58 [min/km]
14 45 DMOWSKI TYMON M WEJHEROWO 400m 0:02:48 8.57 [km/h] 0:07:00 [min/km]
15 29 CZECH KEIRA K REDA 400m 0:02:49 8.52 [km/h] 0:07:03 [min/km]
16 314 DOMŻALSKI JAN M GDYNIA 0 400m 0:02:57 8.14 [km/h] 0:07:23 [min/km]
17 158 LILA KAJETAN M ŁAPALICE 400m 0:02:59 8.04 [km/h] 0:07:28 [min/km]
18 144 KWIATKOWSKA MARTA K GDYNIA PRZEDSZKOLE NR 58 GDYNIA 400m 0:03:00 8.00 [km/h] 0:07:30 [min/km]
19 304 HEBEL KACPER M RUMIA SUPERKIDS 400m 0:03:14 7.42 [km/h] 0:08:05 [min/km]
20 313 DOMŻALSKA GABRIELA K GDYNIA 0 400m 0:03:19 7.24 [km/h] 0:08:18 [min/km]
21 210 POGORZELSKA HANNA K RUMIA TYMEK 400m 0:03:22 7.13 [km/h] 0:08:25 [min/km]
22 102 KAŃTOCH LEON M REDA DECATHLON RUMIA 400m 0:03:30 6.86 [km/h] 0:08:45 [min/km]
23 206 PIECHOCIŃSKI GNIEWKO M GDYNIA KONTENER FORMY 400m 0:03:57 6.08 [km/h] 0:09:53 [min/km]
24 310 PRUS WOJCIECH M RUMIA - 400m 0:03:58 6.05 [km/h] 0:09:55 [min/km]
25 172 MATYSIAK OLIWIER M CZACHÓWEK 400m 0:04:03 5.93 [km/h] 0:10:08 [min/km]
26 112 KNITTER MATEUSZ M GDYNIA 400m 0:04:03 5.93 [km/h] 0:10:08 [min/km]
27 311 REGLIŃSKI FILIP M RUMIA SUPERKIDS 400m 0:04:23 5.48 [km/h] 0:10:58 [min/km]

Komunikat. Wykorzystujemy pliki cookies, aby nasz serwis lepiej spełniał Państwa oczekiwania. Można zablokować zapisywanie cookies, zmieniając ustawienia przeglądarki. [x] __ZAMKNIJ